This is the latest recevied weather packets stored in our database for station/object N6DZK. If no packets are shown the sender has not sent any weather packets the latest 10 day(s).
| Time | Temp. | Humidity | Pressure | Rain* | Wind** | Luminosity | Snow |
|---|---|---|---|---|---|---|---|
| 1777858541 | 17.22° C | 54% | 1013.1 hPa | 0 mm | - | 94 W/m² | - |
| 1777858238 | 17.78° C | 52% | 1013 hPa | 0 mm | - | 116 W/m² | - |
| 1777857935 | 18.33° C | 50% | 1013.1 hPa | 0 mm | - | 151 W/m² | - |
| 1777857633 | 18.89° C | 49% | 1013 hPa | 0 mm | - | 189 W/m² | - |
| 1777857330 | 18.33° C | 50% | 1013 hPa | 0 mm | - | 207 W/m² | - |
| 1777857026 | 18.33° C | 50% | 1013 hPa | 0 mm | - | 225 W/m² | - |
| 1777856721 | 18.33° C | 49% | 1013.1 hPa | 0 mm | - | 230 W/m² | - |
| 1777856417 | 18.33° C | 48% | 1013 hPa | 0 mm | - | 260 W/m² | - |
| 1777856115 | 17.78° C | 50% | 1013 hPa | 0 mm | - | 279 W/m² | - |
| 1777855812 | 17.78° C | 49% | 1013.1 hPa | 0 mm | - | 294 W/m² | - |
| 1777855510 | 18.33° C | 48% | 1012.8 hPa | 0 mm | - | 311 W/m² | - |
| 1777855207 | 18.33° C | 47% | 1012.9 hPa | 0 mm | - | 128 W/m² | - |
| 1777854902 | 18.33° C | 47% | 1012.9 hPa | 0 mm | - | 163 W/m² | - |
| 1777854600 | 18.33° C | 47% | 1013 hPa | 0 mm | - | 172 W/m² | - |
| 1777854297 | 18.89° C | 45% | 1012.7 hPa | 0 mm | - | 208 W/m² | - |
| 1777853994 | 19.44° C | 44% | 1012.9 hPa | 0 mm | - | 407 W/m² | - |
| 1777853691 | 20° C | 44% | 1012.8 hPa | 0 mm | - | 425 W/m² | - |
| 1777853387 | 20° C | 44% | 1013 hPa | 0 mm | - | 444 W/m² | - |
| 1777853085 | 20° C | 44% | 1012.8 hPa | 0 mm | - | 463 W/m² | - |
| 1777852782 | 20° C | 44% | 1012.7 hPa | 0 mm | - | 484 W/m² | - |
| 1777852480 | 20° C | 44% | 1012.7 hPa | 0 mm | - | 501 W/m² | - |
| 1777852177 | 20.56° C | 44% | 1012.7 hPa | 0 mm | - | 524 W/m² | - |
| 1777851874 | 20.56° C | 43% | 1012.7 hPa | 0 mm | - | 549 W/m² | - |
| 1777851572 | 20.56° C | 46% | 1012.9 hPa | 0 mm | - | 573 W/m² | - |
| 1777851268 | 20.56° C | 43% | 1012.8 hPa | 0 mm | - | 607 W/m² | - |
* Rain latest hour (hover to see other rain measurements)
** Current wind speed in m/s (hover to see current wind gust speed)